createdAt,value
2018-11-22T12:16:35.192Z,37.00
2018-11-22T12:19:10.123Z,36.73
2018-11-22T12:21:41.043Z,36.67
2018-11-22T12:24:17.295Z,36.75
2018-11-22T12:26:53.708Z,36.65
2018-11-22T12:29:37.225Z,37.32
2018-11-22T12:32:19.518Z,37.52
2018-11-22T12:34:58.388Z,37.52
2018-11-22T12:37:44.705Z,36.83
2018-11-22T12:40:21.611Z,37.22
2018-11-22T12:42:54.220Z,37.63
2018-11-22T12:45:54.946Z,37.73
2018-11-22T12:48:29.551Z,37.21
2018-11-22T12:51:12.475Z,37.40
2018-11-22T12:53:45.024Z,37.56
2018-11-22T12:56:27.200Z,37.29
2018-11-22T12:59:04.083Z,37.91
2018-11-22T13:01:39.158Z,37.66
2018-11-22T13:04:19.445Z,37.10
2018-11-22T13:06:52.844Z,36.79
2018-11-22T13:09:24.303Z,37.38
2018-11-22T13:11:57.018Z,36.68
2018-11-22T13:14:31.220Z,37.04
2018-11-22T13:17:07.803Z,36.84
2018-11-22T13:19:41.097Z,36.77
2018-11-22T13:22:12.639Z,36.70
2018-11-22T13:24:45.812Z,36.74
2018-11-22T13:27:17.942Z,36.26
2018-11-22T13:29:51.011Z,37.00
2018-11-22T13:32:23.883Z,36.67
2018-11-22T13:35:01.670Z,37.33
2018-11-22T13:37:42.497Z,36.93
2018-11-22T13:40:25.578Z,36.90
2018-11-22T13:43:00.043Z,36.73
2018-11-22T13:45:41.271Z,36.92
2018-11-22T13:48:18.710Z,36.88
2018-11-22T13:50:54.817Z,36.23
2018-11-22T13:53:25.218Z,36.88
2018-11-22T13:56:09.175Z,37.01
2018-11-22T13:58:55.274Z,36.49
2018-11-22T14:01:26.263Z,36.76
2018-11-22T14:04:00.839Z,37.60
2018-11-22T14:06:36.209Z,37.19
2018-11-22T14:09:13.533Z,36.96
2018-11-22T14:11:54.413Z,37.55
2018-11-22T14:14:32.183Z,37.60
2018-11-22T14:17:10.703Z,36.24
2018-11-22T14:19:49.366Z,36.38
2018-11-22T14:22:26.744Z,36.87
2018-11-22T14:27:50.466Z,37.25
2018-11-22T14:30:34.210Z,36.80
2018-11-22T14:33:15.669Z,37.46
2018-11-22T14:35:50.275Z,37.55
2018-11-22T14:38:28.173Z,36.76
2018-11-22T14:41:07.062Z,37.76
2018-11-22T14:43:43.839Z,37.14
2018-11-22T14:46:18.856Z,37.62
2018-11-22T14:48:57.004Z,37.94
2018-11-22T14:51:43.177Z,37.69
2018-11-22T14:54:23.757Z,37.92
2018-11-22T14:56:58.871Z,38.08
2018-11-22T14:59:40.086Z,38.77
2018-11-22T15:02:17.577Z,38.59
2018-11-22T15:04:53.095Z,39.31
2018-11-22T15:07:28.792Z,39.37
2018-11-22T15:10:05.166Z,39.87
2018-11-22T15:12:45.345Z,39.84
2018-11-22T15:15:26.954Z,40.45
2018-11-22T15:18:12.558Z,40.62
2018-11-22T15:21:00.867Z,40.84
2018-11-22T15:23:31.969Z,40.61
2018-11-22T15:26:07.550Z,41.23
2018-11-22T15:28:39.793Z,41.47
2018-11-22T15:31:17.075Z,41.91
2018-11-22T15:33:55.457Z,41.22
2018-11-22T15:36:29.806Z,41.62
2018-11-22T15:39:11.518Z,41.96
2018-11-22T15:41:46.073Z,42.32
2018-11-22T15:44:20.347Z,42.27
2018-11-22T15:46:56.178Z,41.85
2018-11-22T15:49:31.151Z,41.29
2018-11-22T15:52:04.903Z,41.20
2018-11-22T15:54:40.938Z,41.86
2018-11-22T15:57:15.635Z,41.15
2018-11-22T15:59:49.843Z,40.80
2018-11-22T16:02:26.284Z,41.45
2018-11-22T16:05:02.299Z,41.48
2018-11-22T16:07:37.130Z,41.20
2018-11-22T16:10:15.337Z,41.01
2018-11-22T16:12:55.152Z,41.60
2018-11-22T16:15:44.036Z,41.72
2018-11-22T16:18:19.659Z,41.30
2018-11-22T16:20:53.534Z,41.03
2018-11-22T16:23:25.133Z,41.80
2018-11-22T16:26:01.916Z,41.62
2018-11-22T16:28:39.235Z,41.07
2018-11-22T16:31:22.259Z,40.73
2018-11-22T16:34:01.627Z,41.22
2018-11-22T16:36:45.613Z,41.35
2018-11-22T16:39:20.538Z,41.16
2018-11-22T16:41:57.562Z,41.57
2018-11-22T16:44:35.824Z,41.50
2018-11-22T16:49:55.844Z,41.91
2018-11-22T16:52:40.383Z,41.67
2018-11-22T16:55:18.754Z,41.97
2018-11-22T16:57:55.622Z,42.11
2018-11-22T17:00:38.273Z,42.18
2018-11-22T17:03:20.529Z,40.90
2018-11-22T17:06:01.164Z,41.05
2018-11-22T17:08:40.403Z,41.56
2018-11-22T17:11:22.500Z,42.09
2018-11-22T17:14:03.335Z,42.65
2018-11-22T17:16:42.262Z,43.22
2018-11-22T17:19:25.893Z,43.28
2018-11-22T17:22:04.105Z,43.42
2018-11-22T17:24:41.099Z,44.12
2018-11-22T17:27:18.301Z,43.68
2018-11-22T17:29:55.714Z,44.00
2018-11-22T17:32:28.972Z,43.46
2018-11-22T17:35:14.644Z,44.06
2018-11-22T17:37:51.116Z,44.34
2018-11-22T17:40:30.937Z,44.90
2018-11-22T17:43:08.061Z,44.29
2018-11-22T17:45:45.535Z,44.63
2018-11-22T17:48:23.541Z,45.00
2018-11-22T17:51:07.897Z,45.02
2018-11-22T17:53:41.484Z,45.18
2018-11-22T17:56:23.343Z,45.75
2018-11-22T17:58:58.941Z,45.80
2018-11-22T18:01:37.374Z,45.43
2018-11-22T18:04:18.315Z,45.44
2018-11-22T18:07:00.821Z,45.93
2018-11-22T18:09:42.548Z,45.49
2018-11-22T18:12:20.268Z,45.33
2018-11-22T18:15:06.007Z,46.34
2018-11-22T18:23:11.637Z,46.17
2018-11-22T18:25:48.994Z,46.68
2018-11-22T18:28:27.133Z,47.00
2018-11-22T18:31:06.876Z,47.08
2018-11-22T18:33:45.231Z,47.00
2018-11-22T18:36:22.569Z,47.03
2018-11-22T18:39:01.678Z,46.31
2018-11-22T18:41:36.593Z,46.78
2018-11-22T18:44:13.418Z,47.00
2018-11-22T18:46:47.064Z,47.11
2018-11-22T18:49:18.748Z,47.33
2018-11-22T18:51:55.502Z,46.68
2018-11-22T18:57:12.786Z,47.36
2018-11-22T18:59:46.695Z,46.89
2018-11-22T19:02:20.383Z,46.64
2018-11-22T19:04:54.813Z,46.40
2018-11-22T19:07:30.108Z,47.04
2018-11-22T19:10:12.451Z,46.96
2018-11-22T19:12:58.453Z,47.21
2018-11-22T19:15:34.265Z,47.20
2018-11-22T19:18:13.255Z,46.90
2018-11-22T19:20:54.230Z,46.65
2018-11-22T19:23:30.895Z,46.58
2018-11-22T19:26:07.524Z,46.63
2018-11-22T19:28:43.431Z,46.71
2018-11-22T19:31:18.877Z,46.33
2018-11-22T19:33:51.273Z,46.30
2018-11-22T19:36:25.991Z,46.43
2018-11-22T19:38:59.392Z,46.44
2018-11-22T19:41:32.293Z,46.79
2018-11-22T19:44:06.386Z,46.25
2018-11-22T19:46:46.172Z,47.08
2018-11-22T19:49:32.422Z,47.15
2018-11-22T19:52:05.318Z,46.93
2018-11-22T19:54:39.023Z,47.00
2018-11-22T19:57:20.704Z,47.05
2018-11-22T20:00:00.531Z,46.55
2018-11-22T20:02:35.813Z,46.22
2018-11-22T20:05:21.703Z,46.63
2018-11-22T20:08:04.974Z,46.45
2018-11-22T20:10:43.230Z,47.35
2018-11-22T20:13:22.352Z,47.58
2018-11-22T20:15:54.019Z,47.37
2018-11-22T20:18:33.008Z,47.59
2018-11-22T20:21:13.022Z,47.05
2018-11-22T20:23:51.813Z,47.47
2018-11-22T20:26:27.227Z,48.23
2018-11-22T20:29:05.357Z,47.71
2018-11-22T20:31:43.889Z,47.94
2018-11-22T20:34:17.014Z,47.79
2018-11-22T20:36:54.047Z,47.50
2018-11-22T20:39:27.407Z,47.55
2018-11-22T20:44:56.744Z,47.54
2018-11-22T20:47:37.984Z,47.57
2018-11-22T20:50:23.763Z,47.60
2018-11-22T20:52:57.893Z,47.63
2018-11-22T20:55:38.802Z,47.68
2018-11-22T20:58:12.802Z,47.42
2018-11-22T21:00:50.760Z,47.75
2018-11-22T21:03:26.638Z,47.87
2018-11-22T21:05:58.864Z,47.90
2018-11-22T21:08:33.257Z,47.99
2018-11-22T21:14:45.103Z,48.34
2018-11-22T21:17:22.179Z,48.50
2018-11-22T21:19:56.906Z,47.90
2018-11-22T21:22:31.652Z,48.62
2018-11-22T21:25:05.474Z,48.18
2018-11-22T21:27:39.604Z,47.90
2018-11-22T21:30:22.993Z,48.37
2018-11-22T21:32:59.757Z,48.39
2018-11-22T21:35:33.796Z,48.62
2018-11-22T21:38:10.675Z,48.58
2018-11-22T21:40:44.519Z,48.94
2018-11-22T21:43:22.401Z,49.29
2018-11-22T21:45:59.953Z,48.81
2018-11-22T21:48:32.240Z,49.47
2018-11-22T21:51:06.494Z,49.30
2018-11-22T21:53:48.432Z,48.94
2018-11-22T21:56:27.605Z,49.87
2018-11-22T22:01:44.228Z,49.25
2018-11-22T22:04:17.640Z,49.05
2018-11-22T22:09:18.509Z,49.18
2018-11-22T22:11:57.308Z,48.89
2018-11-22T22:14:36.377Z,48.73
2018-11-22T22:17:19.169Z,49.12
2018-11-22T22:19:51.623Z,48.80
2018-11-22T22:22:29.410Z,48.93
2018-11-22T22:25:05.456Z,49.19
2018-11-22T22:27:37.963Z,49.27
2018-11-22T22:30:16.854Z,48.77
2018-11-22T22:32:51.716Z,49.39
2018-11-22T22:35:28.461Z,49.08
2018-11-22T22:38:02.571Z,49.40
2018-11-22T22:43:19.443Z,49.16
2018-11-22T22:45:57.357Z,48.94
2018-11-22T22:48:36.221Z,49.07
2018-11-22T22:51:14.697Z,50.03
2018-11-22T22:53:49.894Z,49.96
2018-11-22T22:56:24.324Z,49.58
2018-11-22T22:58:58.876Z,49.24
2018-11-22T23:01:31.895Z,49.58
2018-11-22T23:04:04.270Z,48.64
2018-11-22T23:06:40.594Z,49.09
2018-11-22T23:09:16.985Z,48.66
2018-11-22T23:11:52.675Z,48.28
2018-11-22T23:17:14.382Z,48.75
2018-11-22T23:19:48.790Z,48.55
2018-11-22T23:22:26.517Z,48.47
2018-11-22T23:24:59.563Z,48.56
2018-11-22T23:27:36.098Z,48.23
2018-11-22T23:30:14.190Z,47.27
2018-11-22T23:32:52.734Z,47.48
2018-11-22T23:35:27.765Z,47.78
2018-11-22T23:38:03.201Z,48.21
2018-11-22T23:40:38.014Z,48.10
2018-11-22T23:43:16.319Z,48.64
2018-11-22T23:45:50.159Z,48.67
2018-11-22T23:48:26.841Z,48.54
2018-11-22T23:51:01.297Z,48.52
2018-11-22T23:53:35.362Z,48.78
2018-11-22T23:56:09.560Z,49.23
2018-11-22T23:58:43.816Z,49.50
